Las Cruces International Airport
KLRU : now visible

Airfield :











YOU CAN JOIN US ON...

 
LOGIN :

Register | Disclaimer

   EN    FR    IT 

 









Legend :    VFR   Marginal VFR   IFR   Intensive IFR   Very Intensive IFR
Visi :
Ceiling :
>= 8 km
>= 3000ft
5 to 8 km
1000 to 3000 ft
1500m to 5 km
500 to 1000 ft
800 to 1500m
200 to 500 ft
< 800m
< 200 ft
Symbols :   Thunderstorms  Fog  Heavy snow  Heavy precipitations  Wind > 20 kt






- Airport Elevation : 4456 ft
- IATA code : LRU


KLRU - Las Cruces International

CURRENT METAR :
  • 181115Z AUTO 34008KT 10SM CLR 04/M05 A3026 RMK AO2 T00411049

EXPIRED METARs :
  • 181055Z AUTO 33009KT 10SM CLR 04/M04 A3026 RMK AO2 T00401041
  • 181035Z AUTO 34006KT 10SM CLR 04/M03 A3026 RMK AO2 T00351030
  • 181015Z AUTO 03004KT 10SM CLR 05/M02 A3025 RMK AO2 T00501025
  • 180955Z AUTO 34009KT 10SM CLR 06/M02 A3025 RMK AO2 T00611023
  • 180935Z AUTO 35009KT 10SM CLR 07/M03 A3024 RMK AO2 T00671026
  • 180915Z AUTO 33009KT 10SM CLR 06/M03 A3023 RMK AO2 T00621030
  • 180855Z AUTO 32008KT 10SM CLR 04/M03 A3022 RMK AO2 T00391035
  • 180835Z AUTO 33006KT 10SM CLR 04/M03 A3023 RMK AO2 T00421032

TAF KLRU
Valid from the 18 at 12:00 until the 19 at 12:00 UTC


181120Z 1812/1912 32008KT P6SM SKC
FM181800 05005KT P6SM SKC
FM190000 11004KT P6SM FEW250



MET'MAP, your aeronautical weather chart ! - Copyright ORBIFLY December 2007 - Disclaimer

ORBIFLY MET'MAP TEAM :

Programming & Development : Alexandra Zaïnal
Concept & original design : Baudouin d'Aumeries
Assistance for programming : Marc-Olivier Méhu
Technical & hardware support : Manuel Goepfert

Contact : metmap@orbifly.com




SOURCES & CREDITS :

   NOAA       Earth
Advisory